^^
Grace C. Lehan Memorial Weather Station Historical Data
Daily Summary for July 12, 2021 Units:  English    Metric   Both
Daily Weekly Monthly Yearly
  High: Low: Average:
Temperature: 57.4 °F 35.8 °F 43.9 °F
Dew Point: 46.8 °F 21.4 °F 28 °F
Humidity: 74.9% 36.4% 54%
Wind Speed: 12.6mph 0mph 4.2mph
Wind Gust: 29mph - -
Wind- - WNW
Pressure: 30.16 in 29.53 in -
Precipitation: 0.00 in    
 
 
Tabular Data for July 12, 2021
Time Temperature Dew Point Pressure Wind Wind Speed Wind Gust Humidity Rainfall Rate (Hourly) solar
00:04 57.1 °F 46.6 °F 29.53 in WSW 3.1 mph 17 mph 68% 0.06 in 0 W/m2
00:09 57.2 °F 46.3 °F 29.54 in WSW 4.3 mph 16 mph 66.9% 0.00 in 0 W/m2
00:14 57.3 °F 45.4 °F 29.55 in WSW 3.9 mph 16 mph 64.3% 0.00 in 0 W/m2
00:19 57.4 °F 44.8 °F 29.56 in WNW 9.2 mph 21 mph 62.7% 0.00 in 0 W/m2
00:24 57.3 °F 46.5 °F 29.57 in NW 9.9 mph 23 mph 67.1% 0.00 in 0 W/m2
00:29 56.1 °F 46.8 °F 29.57 in NW 8.5 mph 23 mph 70.8% 0.00 in 0 W/m2
00:34 54.7 °F 46 °F 29.59 in NW 10.3 mph 23 mph 72.5% 0.00 in 0 W/m2
00:39 53.6 °F 45.5 °F 29.60 in NW 9.9 mph 19 mph 74% 0.00 in 0 W/m2
00:44 52.8 °F 44.8 °F 29.61 in NW 9.6 mph 21 mph 74.2% 0.00 in 0 W/m2
00:49 52.3 °F 44.3 °F 29.62 in NW 8.7 mph 21 mph 74.3% 0.00 in 0 W/m2
00:54 51.9 °F 44.2 °F 29.62 in NW 6.5 mph 21 mph 74.9% 0.00 in 0 W/m2
00:59 51.6 °F 43.7 °F 29.62 in WNW 9.1 mph 21 mph 74.3% 0.00 in 0 W/m2
01:04 51.4 °F 43 °F 29.63 in NW 9 mph 22 mph 73% 0.00 in 0 W/m2
01:09 51.1 °F 42 °F 29.64 in WNW 10.8 mph 22 mph 71.1% 0.00 in 0 W/m2
01:14 50.8 °F 41.6 °F 29.65 in NW 5.7 mph 22 mph 70.5% 0.00 in 0 W/m2
01:19 50.6 °F 41.6 °F 29.65 in NW 6.7 mph 22 mph 71.1% 0.00 in 0 W/m2
01:24 50.3 °F 39.9 °F 29.66 in NW 5.8 mph 22 mph 67.5% 0.00 in 0 W/m2
01:29 49.9 °F 38.6 °F 29.67 in NW 9.1 mph 22 mph 65.1% 0.00 in 0 W/m2
01:34 49.5 °F 38.1 °F 29.67 in NW 7.1 mph 22 mph 64.7% 0.00 in 0 W/m2
01:39 49.2 °F 37.6 °F 29.67 in NW 6.2 mph 16 mph 64.1% 0.00 in 0 W/m2
01:44 48.9 °F 37 °F 29.68 in NW 6.8 mph 18 mph 63.4% 0.00 in 0 W/m2
01:49 48.6 °F 37 °F 29.68 in NW 5.2 mph 18 mph 63.9% 0.00 in 0 W/m2
01:54 48.4 °F 36.6 °F 29.69 in NW 6.2 mph 18 mph 63.5% 0.00 in 0 W/m2
01:59 48.2 °F 36.2 °F 29.71 in WNW 6.8 mph 18 mph 63% 0.00 in 0 W/m2
02:04 48.1 °F 36.3 °F 29.71 in WNW 3.1 mph 18 mph 63.3% 0.00 in 0 W/m2
02:09 48.1 °F 36.2 °F 29.72 in WNW 3.3 mph 15 mph 63.2% 0.00 in 0 W/m2
02:14 48 °F 36.3 °F 29.72 in WNW 4.2 mph 19 mph 63.8% 0.00 in 0 W/m2
02:19 47.9 °F 35.3 °F 29.73 in WNW 10.4 mph 19 mph 61.5% 0.00 in 0 W/m2
02:24 47.9 °F 35.1 °F 29.73 in WNW 5.2 mph 19 mph 61% 0.00 in 0 W/m2
02:29 47.8 °F 34.8 °F 29.73 in WNW 8.8 mph 19 mph 60.4% 0.00 in 0 W/m2
02:34 47.8 °F 34.5 °F 29.73 in West 7.5 mph 19 mph 59.8% 0.00 in 0 W/m2
02:39 47.7 °F 34.4 °F 29.73 in WNW 8.8 mph 16 mph 59.8% 0.00 in 0 W/m2
02:44 47.6 °F 34.3 °F 29.74 in WNW 6.5 mph 17 mph 59.8% 0.00 in 0 W/m2
02:49 47.4 °F 34 °F 29.73 in WNW 8.7 mph 20 mph 59.3% 0.00 in 0 W/m2
02:54 47.3 °F 33.8 °F 29.74 in WNW 8.3 mph 20 mph 59.4% 0.00 in 0 W/m2
02:59 47.1 °F 33.6 °F 29.74 in WNW 9 mph 20 mph 59% 0.00 in 0 W/m2
03:04 47 °F 33.8 °F 29.75 in WNW 5 mph 20 mph 59.8% 0.00 in 0 W/m2
03:09 46.9 °F 33.7 °F 29.75 in WNW 3.8 mph 16 mph 60% 0.00 in 0 W/m2
03:14 46.7 °F 33.4 °F 29.75 in WNW 8.4 mph 20 mph 59.6% 0.00 in 0 W/m2
03:19 46.6 °F 33 °F 29.76 in WNW 11.9 mph 23 mph 59% 0.00 in 0 W/m2
03:24 46.5 °F 32.9 °F 29.76 in WNW 6.3 mph 23 mph 59% 0.00 in 0 W/m2
03:29 46.4 °F 32.8 °F 29.76 in WNW 9.2 mph 23 mph 59% 0.00 in 0 W/m2
03:34 46.2 °F 32.2 °F 29.76 in WNW 11.9 mph 23 mph 57.7% 0.00 in 0 W/m2
03:36 46.2 °F 32.2 °F 29.76 in WNW 11.6 mph 22 mph 57.8% 0.00 in 0 W/m2
04:09 45.4 °F 31.1 °F 29.79 in WNW 9.6 mph 22 mph 57% 0.00 in 0 W/m2
04:14 45.3 °F 31 °F 29.80 in NW 6.5 mph 22 mph 57.2% 0.00 in 0 W/m2
04:19 45.1 °F 30.8 °F 29.81 in NW 12.6 mph 22 mph 56.9% 0.00 in 0 W/m2
04:24 44.9 °F 30 °F 29.81 in NW 12.6 mph 22 mph 55.6% 0.00 in 0 W/m2
04:29 44.9 °F 29.9 °F 29.81 in WNW 7.1 mph 22 mph 55.5% 0.00 in 0 W/m2
04:34 44.7 °F 30 °F 29.82 in WNW 6.3 mph 22 mph 56% 0.00 in 0 W/m2
04:39 44.5 °F 29.9 °F 29.82 in WNW 8.1 mph 15 mph 56.1% 0.00 in 0 W/m2
04:44 44.4 °F 29.5 °F 29.82 in WNW 7.6 mph 17 mph 55.5% 0.00 in 0 W/m2
04:49 44.3 °F 28.8 °F 29.83 in NW 8.9 mph 21 mph 54.2% 0.00 in 0 W/m2
04:54 44.2 °F 28.2 °F 29.83 in WNW 10.1 mph 29 mph 53.1% 0.00 in 0 W/m2
04:59 44.2 °F 28.2 °F 29.83 in WNW 8.4 mph 29 mph 53% 0.00 in 0 W/m2
05:04 44.2 °F 28.2 °F 29.85 in WNW 8.6 mph 29 mph 53.2% 0.00 in 0 W/m2
05:09 44.1 °F 28.2 °F 29.85 in WNW 9 mph 21 mph 53.3% 0.00 in 0 W/m2
05:14 44 °F 28.2 °F 29.85 in WNW 7.1 mph 21 mph 53.3% 0.00 in 0 W/m2
05:19 44 °F 28.4 °F 29.85 in WNW 5.1 mph 21 mph 54% 0.00 in 0 W/m2
05:24 43.8 °F 28.4 °F 29.85 in WNW 4.7 mph 21 mph 54.4% 0.00 in 0 W/m2
05:29 43.7 °F 28.8 °F 29.86 in WNW 3.2 mph 21 mph 55.5% 0.00 in 0 W/m2
05:34 43.5 °F 28.2 °F 29.86 in WNW 9.6 mph 21 mph 54.4% 0.00 in 0 W/m2
05:39 43.5 °F 28.3 °F 29.86 in WNW 4.8 mph 20 mph 54.8% 0.00 in 0 W/m2
05:44 43.4 °F 28.3 °F 29.86 in WNW 5.8 mph 20 mph 55% 0.00 in 0 W/m2
05:49 43.2 °F 28 °F 29.86 in WNW 11 mph 23 mph 54.7% 0.00 in 0 W/m2
05:54 43.2 °F 28.1 °F 29.85 in WNW 6.9 mph 23 mph 55% 0.00 in 0 W/m2
05:59 43.1 °F 28.1 °F 29.86 in NW 8 mph 23 mph 55% 0.00 in 0 W/m2
06:04 43 °F 28 °F 29.86 in NW 4.5 mph 23 mph 55% 0.00 in 0 W/m2
06:09 43 °F 28.1 °F 29.87 in WNW 7.7 mph 17 mph 55.3% 0.00 in 0 W/m2
06:14 42.9 °F 27.5 °F 29.87 in NW 6.3 mph 17 mph 54.2% 0.00 in 0 W/m2
06:19 42.9 °F 27.7 °F 29.87 in WNW 4 mph 17 mph 54.6% 0.00 in 0 W/m2
06:24 42.8 °F 27.5 °F 29.88 in NW 7 mph 18 mph 54.3% 0.00 in 0 W/m2
06:29 42.8 °F 27.3 °F 29.88 in WNW 2.9 mph 18 mph 54% 0.00 in 0 W/m2
06:34 42.7 °F 27.2 °F 29.89 in WNW 3.9 mph 18 mph 54% 0.00 in 0 W/m2
06:39 42.6 °F 27.2 °F 29.90 in WNW 4.1 mph 14 mph 54.1% 0.00 in 0 W/m2
06:44 42.5 °F 27.1 °F 29.90 in WNW 10.6 mph 21 mph 54.2% 0.00 in 0 W/m2
06:49 42.4 °F 27.3 °F 29.90 in WNW 10 mph 21 mph 54.9% 0.00 in 0 W/m2
06:54 42.3 °F 27.7 °F 29.91 in NW 7.1 mph 21 mph 56% 0.00 in 0 W/m2
06:59 42.1 °F 27.7 °F 29.91 in WNW 7.4 mph 21 mph 56.5% 0.00 in 0 W/m2
07:04 42 °F 27.9 °F 29.91 in WNW 10.5 mph 21 mph 57% 0.00 in 0 W/m2
07:09 41.9 °F 27.8 °F 29.91 in WNW 8.2 mph 21 mph 57.1% 0.00 in 0 W/m2
07:14 41.8 °F 28.1 °F 29.93 in WNW 9.6 mph 21 mph 58% 0.00 in 0 W/m2
07:19 41.7 °F 28.2 °F 29.93 in WNW 9 mph 23 mph 58.4% 0.00 in 0 W/m2
07:24 41.6 °F 28.4 °F 29.94 in NW 5.6 mph 23 mph 59% 0.00 in 5 W/m2
07:29 41.5 °F 28.4 °F 29.94 in WNW 5.1 mph 23 mph 59.4% 0.00 in 5 W/m2
07:34 41.5 °F 28.4 °F 29.94 in WNW 5.2 mph 23 mph 59.5% 0.00 in 7 W/m2
07:39 41.4 °F 28.7 °F 29.94 in WNW 2.8 mph 13 mph 60.2% 0.00 in 12 W/m2
07:44 41.3 °F 28.7 °F 29.94 in NW 2.6 mph 14 mph 60.6% 0.00 in 19 W/m2
07:49 41.1 °F 28.7 °F 29.95 in WNW 4.4 mph 15 mph 61% 0.00 in 19 W/m2
07:54 41 °F 28.6 °F 29.95 in NW 5 mph 15 mph 61% 0.00 in 40 W/m2
07:59 41.1 °F 28.7 °F 29.95 in WNW 4.2 mph 15 mph 61.2% 0.00 in 44 W/m2
08:00 41.1 °F 29.1 °F 29.95 in NW 1 mph 15 mph 62% 0.00 in 16 W/m2
08:09 41.2 °F 28.9 °F 29.97 in West 4.3 mph 12 mph 61.3% 0.00 in 9 W/m2
08:14 41.2 °F 28.8 °F 29.97 in WNW 7.5 mph 17 mph 61% 0.00 in 9 W/m2
08:19 41.3 °F 28.9 °F 29.98 in WNW 4.8 mph 17 mph 61% 0.00 in 19 W/m2
08:24 41.4 °F 29 °F 29.97 in WNW 4.3 mph 17 mph 61% 0.00 in 30 W/m2
08:29 41.4 °F 29.3 °F 29.98 in WNW 2 mph 17 mph 61.9% 0.00 in 51 W/m2
08:34 41.4 °F 29.1 °F 29.98 in WNW 7 mph 17 mph 61.3% 0.00 in 58 W/m2
08:39 41.5 °F 29.3 °F 29.98 in WNW 5.8 mph 15 mph 61.4% 0.00 in 63 W/m2
08:44 41.6 °F 29.2 °F 29.98 in WNW 9.9 mph 25 mph 61% 0.00 in 63 W/m2
08:49 41.8 °F 29.1 °F 29.99 in WNW 7.5 mph 25 mph 60.5% 0.00 in 86 W/m2
08:54 41.9 °F 29.1 °F 30.00 in WNW 5.6 mph 25 mph 60.2% 0.00 in 102 W/m2
08:59 42 °F 29.2 °F 30.00 in NW 8.2 mph 25 mph 60% 0.00 in 95 W/m2
09:04 42.2 °F 29.3 °F 30.01 in WNW 9 mph 25 mph 60% 0.00 in 74 W/m2
09:09 42.2 °F 29.2 °F 30.01 in WNW 5.5 mph 18 mph 59.6% 0.00 in 86 W/m2
09:14 42.3 °F 29.4 °F 30.01 in WNW 8.2 mph 18 mph 60% 0.00 in 91 W/m2
09:19 42.3 °F 29.5 °F 30.02 in NW 3.6 mph 18 mph 60.2% 0.00 in 74 W/m2
09:24 42.3 °F 29.4 °F 30.01 in WNW 7.8 mph 21 mph 59.9% 0.00 in 77 W/m2
09:29 42.3 °F 29.1 °F 30.02 in WNW 3.2 mph 21 mph 59.3% 0.00 in 105 W/m2
09:34 42.3 °F 29.3 °F 30.03 in NW 3.1 mph 21 mph 59.5% 0.00 in 128 W/m2
09:39 42.5 °F 29.5 °F 30.03 in WNW 5.8 mph 14 mph 59.7% 0.00 in 128 W/m2
09:44 42.7 °F 29.2 °F 30.03 in WNW 5.5 mph 15 mph 58.5% 0.00 in 113 W/m2
09:49 42.8 °F 29.1 °F 30.03 in WNW 5.9 mph 17 mph 58.2% 0.00 in 109 W/m2
09:54 42.9 °F 29.3 °F 30.03 in WNW 6.1 mph 17 mph 58.4% 0.00 in 134 W/m2
09:59 43 °F 30.2 °F 30.04 in WNW 2.5 mph 17 mph 60.2% 0.00 in 220 W/m2
10:04 43.2 °F 30 °F 30.04 in NW 4.8 mph 17 mph 59.4% 0.00 in 146 W/m2
10:09 43.3 °F 29.6 °F 30.05 in WNW 4.8 mph 14 mph 58.1% 0.00 in 107 W/m2
10:14 43.3 °F 29.4 °F 30.04 in NW 8.3 mph 18 mph 57.6% 0.00 in 135 W/m2
10:19 43.3 °F 29.2 °F 30.04 in WNW 5.6 mph 18 mph 57% 0.00 in 174 W/m2
10:24 43.7 °F 29.6 °F 30.04 in WNW 6 mph 18 mph 57.2% 0.00 in 538 W/m2
10:29 44.3 °F 29.9 °F 30.04 in WNW 6.4 mph 18 mph 56.6% 0.00 in 538 W/m2
10:34 44.8 °F 30 °F 30.04 in NW 7.7 mph 18 mph 56% 0.00 in 221 W/m2
10:39 45.1 °F 29.9 °F 30.04 in WNW 3.1 mph 15 mph 54.9% 0.00 in 341 W/m2
10:44 45.4 °F 29.8 °F 30.04 in NW 5.3 mph 16 mph 54.3% 0.00 in 185 W/m2
10:49 45.3 °F 29.3 °F 30.04 in WNW 7.1 mph 23 mph 53.3% 0.00 in 142 W/m2
10:54 44.9 °F 28.6 °F 30.05 in WNW 9.9 mph 23 mph 52.5% 0.00 in 176 W/m2
10:59 44.5 °F 28.2 °F 30.05 in NW 8 mph 23 mph 52.5% 0.00 in 236 W/m2
11:04 44.3 °F 28.4 °F 30.05 in WNW 5.3 mph 23 mph 53.3% 0.00 in 236 W/m2
11:09 44.3 °F 28.7 °F 30.05 in WNW 3.3 mph 14 mph 54% 0.00 in 167 W/m2
11:14 44.4 °F 28.8 °F 30.05 in NW 3.5 mph 14 mph 54% 0.00 in 155 W/m2
11:19 44.5 °F 28.9 °F 30.05 in WNW 4 mph 14 mph 53.9% 0.00 in 144 W/m2
11:24 44.6 °F 28.4 °F 30.05 in NW 6.9 mph 20 mph 52.8% 0.00 in 162 W/m2
11:29 44.5 °F 28.5 °F 30.05 in WNW 5.7 mph 20 mph 53% 0.00 in 162 W/m2
11:34 44.6 °F 28.6 °F 30.05 in WNW 4.5 mph 20 mph 53.2% 0.00 in 338 W/m2
11:39 44.9 °F 29.2 °F 30.04 in WNW 3 mph 12 mph 53.6% 0.00 in 265 W/m2
11:44 45.6 °F 29.6 °F 30.04 in WNW 5.2 mph 18 mph 53.2% 0.00 in 207 W/m2
11:49 46.3 °F 29.9 °F 30.04 in WNW 5.7 mph 18 mph 52.5% 0.00 in 183 W/m2
11:54 46.9 °F 29.8 °F 30.04 in NW 4.2 mph 18 mph 51.1% 0.00 in 232 W/m2
11:59 47.3 °F 30 °F 30.04 in WNW 4.2 mph 18 mph 50.8% 0.00 in 223 W/m2
12:00 47.5 °F 29.8 °F 30.04 in NW 4.5 mph 18 mph 50% 0.00 in 125 W/m2
12:09 47.7 °F 29.6 °F 30.05 in WNW 7.2 mph 19 mph 49.1% 0.00 in 526 W/m2
12:14 47.4 °F 28.8 °F 30.05 in WNW 6.2 mph 19 mph 48.1% 0.00 in 473 W/m2
12:19 47.2 °F 29.2 °F 30.05 in WNW 4.3 mph 19 mph 49.3% 0.00 in 257 W/m2
12:24 46.9 °F 28.4 °F 30.05 in WNW 9 mph 19 mph 48.3% 0.00 in 102 W/m2
12:29 46.6 °F 28.5 °F 30.05 in WNW 5.2 mph 19 mph 49% 0.00 in 292 W/m2
12:34 46.6 °F 28.9 °F 30.05 in NW 4.6 mph 19 mph 49.8% 0.00 in 294 W/m2
12:39 46.7 °F 28.6 °F 30.05 in WNW 5.6 mph 12 mph 49% 0.00 in 466 W/m2
12:44 46.7 °F 28.4 °F 30.04 in WNW 4.5 mph 14 mph 48.7% 0.00 in 369 W/m2
12:49 46.7 °F 28.1 °F 30.04 in NW 6.4 mph 15 mph 48.2% 0.00 in 369 W/m2
12:54 46.6 °F 28 °F 30.05 in WNW 5.6 mph 15 mph 48% 0.00 in 183 W/m2
12:59 46.5 °F 27.8 °F 30.04 in WNW 5.7 mph 15 mph 47.8% 0.00 in 97 W/m2
13:04 46.7 °F 27.9 °F 30.04 in WNW 3.8 mph 15 mph 47.8% 0.00 in 424 W/m2
13:09 47 °F 27.7 °F 30.05 in WNW 5.2 mph 13 mph 46.7% 0.00 in 278 W/m2
13:14 47.3 °F 27.7 °F 30.05 in NW 4 mph 13 mph 46.2% 0.00 in 272 W/m2
13:19 47.4 °F 27.5 °F 30.06 in WNW 3.8 mph 13 mph 45.6% 0.00 in 295 W/m2
13:24 47.6 °F 27.1 °F 30.06 in WNW 5.8 mph 16 mph 44.6% 0.00 in 334 W/m2
13:29 47.7 °F 26.4 °F 30.05 in WNW 7.4 mph 19 mph 43.1% 0.00 in 107 W/m2
13:34 47.5 °F 25.3 °F 30.05 in WNW 8.7 mph 20 mph 41.5% 0.00 in 232 W/m2
13:39 47.3 °F 25.2 °F 30.05 in WNW 6.3 mph 20 mph 41.7% 0.00 in 179 W/m2
13:44 47.3 °F 25 °F 30.05 in WNW 7.4 mph 20 mph 41.4% 0.00 in 163 W/m2
13:49 47.2 °F 25.1 °F 30.05 in WNW 3 mph 20 mph 41.7% 0.00 in 174 W/m2
13:54 47.1 °F 25 °F 30.05 in WNW 3 mph 20 mph 41.6% 0.00 in 267 W/m2
13:59 47.4 °F 25.3 °F 30.05 in WNW 3.1 mph 20 mph 41.6% 0.00 in 297 W/m2
14:04 47.8 °F 24.9 °F 30.06 in West 4.4 mph 20 mph 40.4% 0.00 in 244 W/m2
14:09 48.1 °F 24.5 °F 30.06 in WNW 4.8 mph 17 mph 39.2% 0.00 in 232 W/m2
14:14 48.2 °F 24.7 °F 30.06 in West 1.8 mph 17 mph 39.5% 0.00 in 167 W/m2
14:19 48.2 °F 24.7 °F 30.06 in WNW 3.2 mph 17 mph 39.5% 0.00 in 81 W/m2
14:24 48 °F 23.3 °F 30.06 in WNW 5 mph 17 mph 37.4% 0.00 in 255 W/m2
14:29 47.9 °F 24.7 °F 30.06 in West 2.1 mph 17 mph 39.9% 0.00 in 232 W/m2
14:34 47.9 °F 25.2 °F 30.06 in WNW 3.4 mph 17 mph 40.7% 0.00 in 47 W/m2
14:39 47.9 °F 25 °F 30.06 in WNW 4.2 mph 12 mph 40.3% 0.00 in 26 W/m2
14:44 47.9 °F 24.3 °F 30.06 in WNW 5.4 mph 14 mph 39.3% 0.00 in 26 W/m2
14:49 47.8 °F 24.2 °F 30.06 in WNW 3.7 mph 14 mph 39.2% 0.00 in 26 W/m2
14:54 47.6 °F 24.8 °F 30.07 in WNW 1.7 mph 14 mph 40.5% 0.00 in 25 W/m2
14:59 47.5 °F 25.4 °F 30.07 in WNW 2 mph 14 mph 41.7% 0.00 in 25 W/m2
15:04 47.4 °F 23.8 °F 30.07 in WNW 5.8 mph 14 mph 39.2% 0.00 in 23 W/m2
15:09 47.3 °F 23.1 °F 30.08 in WNW 2.5 mph 12 mph 38.1% 0.00 in 21 W/m2
15:14 47.3 °F 23.7 °F 30.07 in West 0.5 mph 12 mph 39.2% 0.00 in 21 W/m2
15:19 47.2 °F 23.5 °F 30.08 in West 2.4 mph 13 mph 39.1% 0.00 in 19 W/m2
15:24 47.1 °F 22.2 °F 30.08 in West 3.6 mph 13 mph 37% 0.00 in 19 W/m2
15:29 47 °F 22.2 °F 30.07 in West 4.1 mph 14 mph 37.2% 0.00 in 18 W/m2
15:34 46.8 °F 21.7 °F 30.07 in WNW 4.4 mph 14 mph 36.6% 0.00 in 18 W/m2
15:39 46.6 °F 21.4 °F 30.08 in West 1.6 mph 13 mph 36.4% 0.00 in 16 W/m2
15:44 46.5 °F 21.6 °F 30.08 in WNW 1.2 mph 13 mph 36.9% 0.00 in 14 W/m2
15:49 46.3 °F 21.4 °F 30.08 in West 0.1 mph 13 mph 36.9% 0.00 in 14 W/m2
15:54 46.2 °F 21.8 °F 30.09 in West 0.2 mph 13 mph 37.7% 0.00 in 12 W/m2
15:59 46 °F 22.2 °F 30.09 in West 0.2 mph 13 mph 38.6% 0.00 in 11 W/m2
16:09 45.5 °F 22.5 °F 30.09 in WSW 1 mph 7 mph 39.8% 0.00 in 7 W/m2
16:14 45.2 °F 22.3 °F 30.09 in WSW 0.2 mph 7 mph 40% 0.00 in 5 W/m2
16:19 45 °F 22.6 °F 30.09 in Calm   7 mph 40.9% 0.00 in 0 W/m2
16:24 44.7 °F 22.5 °F 30.10 in WSW 0.1 mph 7 mph 41% 0.00 in 0 W/m2
16:29 44.4 °F 22.5 °F 30.10 in Calm   7 mph 41.6% 0.00 in 0 W/m2
16:34 44.2 °F 22.5 °F 30.09 in WSW 0.1 mph 7 mph 42% 0.00 in 0 W/m2
16:39 43.9 °F 22.3 °F 30.10 in WSW 0.1 mph 2 mph 42% 0.00 in 0 W/m2
16:44 43.6 °F 22.1 °F 30.10 in Calm   2 mph 42.1% 0.00 in 0 W/m2
16:49 43.3 °F 22.1 °F 30.10 in WSW 0.1 mph 2 mph 42.7% 0.00 in 0 W/m2
16:54 43.1 °F 22.1 °F 30.10 in WSW 0.1 mph 2 mph 43% 0.00 in 0 W/m2
16:59 42.8 °F 22.1 °F 30.10 in Calm   2 mph 43.3% 0.00 in 0 W/m2
17:04 42.6 °F 23.1 °F 30.10 in Calm   2 mph 45.6% 0.00 in 0 W/m2
17:09 42.4 °F 23.9 °F 30.10 in Calm     47.5% 0.00 in 0 W/m2
17:14 42.2 °F 23.5 °F 30.10 in Calm     47.1% 0.00 in 0 W/m2
17:19 42.1 °F 24 °F 30.11 in Calm     48.2% 0.00 in 0 W/m2
17:24 42.1 °F 23.7 °F 30.11 in Calm     47.6% 0.00 in 0 W/m2
17:29 42 °F 23.3 °F 30.11 in Calm     47% 0.00 in 0 W/m2
17:34 42 °F 23.2 °F 30.11 in Calm     47% 0.00 in 0 W/m2
17:39 41.9 °F 23.2 °F 30.11 in Calm     47% 0.00 in 0 W/m2
17:44 41.9 °F 23.5 °F 30.11 in Calm     47.7% 0.00 in 0 W/m2
17:49 41.9 °F 23.2 °F 30.11 in Calm     47% 0.00 in 0 W/m2
17:54 41.9 °F 23.5 °F 30.11 in Calm     47.8% 0.00 in 0 W/m2
17:59 41.8 °F 23.4 °F 30.11 in Calm     47.7% 0.00 in 0 W/m2
18:04 41.6 °F 23.4 °F 30.11 in Calm     47.9% 0.00 in 0 W/m2
18:09 41.5 °F 22.8 °F 30.12 in Calm     47% 0.00 in 0 W/m2
18:14 41.2 °F 22.5 °F 30.12 in Calm     47% 0.00 in 0 W/m2
18:19 40.9 °F 22.4 °F 30.12 in Calm     47.3% 0.00 in 0 W/m2
18:24 40.6 °F 22.4 °F 30.12 in Calm     48% 0.00 in 0 W/m2
18:29 40.3 °F 22.3 °F 30.12 in Calm     48.3% 0.00 in 0 W/m2
18:34 40.1 °F 22.8 °F 30.11 in Calm     49.6% 0.00 in 0 W/m2
18:39 39.9 °F 22.6 °F 30.12 in Calm     49.6% 0.00 in 0 W/m2
18:44 39.7 °F 22.5 °F 30.12 in Calm     49.9% 0.00 in 0 W/m2
18:49 39.5 °F 22.5 °F 30.12 in Calm     50.3% 0.00 in 0 W/m2
18:54 39.2 °F 22.4 °F 30.12 in Calm     50.5% 0.00 in 0 W/m2
18:59 39 °F 22.8 °F 30.12 in Calm     51.8% 0.00 in 0 W/m2
19:04 38.7 °F 22.2 °F 30.12 in Calm     51.1% 0.00 in 0 W/m2
19:09 38.4 °F 21.9 °F 30.13 in Calm     51% 0.00 in 0 W/m2
19:14 38.2 °F 21.9 °F 30.13 in Calm     51.6% 0.00 in 0 W/m2
19:19 38 °F 22.2 °F 30.13 in Calm     52.7% 0.00 in 0 W/m2
19:24 37.8 °F 22 °F 30.14 in Calm     52.5% 0.00 in 0 W/m2
19:29 37.5 °F 21.7 °F 30.14 in Calm     52.3% 0.00 in 0 W/m2
19:34 37.3 °F 21.8 °F 30.14 in Calm     53% 0.00 in 0 W/m2
19:39 37.1 °F 22.1 °F 30.14 in Calm     54.2% 0.00 in 0 W/m2
19:44 37 °F 22.4 °F 30.14 in Calm   1 mph 55.2% 0.00 in 0 W/m2
19:49 36.8 °F 22.3 °F 30.14 in Calm   1 mph 55.2% 0.00 in 0 W/m2
19:54 36.8 °F 22.2 °F 30.14 in Calm   1 mph 55% 0.00 in 0 W/m2
19:59 36.8 °F 22.2 °F 30.14 in Calm   1 mph 55% 0.00 in 0 W/m2
20:00 36.9 °F 22 °F 30.14 in Calm   1 mph 54.5% 0.00 in 0 W/m2
20:09 37.1 °F 22.9 °F 30.14 in Calm   1 mph 56% 0.00 in 0 W/m2
20:14 37.4 °F 22.5 °F 30.15 in Calm   1 mph 54.6% 0.00 in 0 W/m2
20:19 37.6 °F 23 °F 30.15 in Calm   1 mph 55.2% 0.00 in 0 W/m2
20:24 37.8 °F 23.3 °F 30.15 in Calm   1 mph 55.4% 0.00 in 0 W/m2
20:29 38 °F 22.7 °F 30.15 in Calm   1 mph 53.7% 0.00 in 0 W/m2
20:34 38.1 °F 22.7 °F 30.15 in Calm   1 mph 53.5% 0.00 in 0 W/m2
20:39 38.1 °F 23.4 °F 30.15 in Calm     55% 0.00 in 0 W/m2
20:44 38.1 °F 23.3 °F 30.15 in Calm     54.8% 0.00 in 0 W/m2
20:49 37.9 °F 23.1 °F 30.15 in Calm     54.7% 0.00 in 0 W/m2
20:54 37.8 °F 23.4 °F 30.15 in Calm     55.8% 0.00 in 0 W/m2
20:59 37.7 °F 23.6 °F 30.15 in Calm     56.4% 0.00 in 0 W/m2
21:04 37.7 °F 23.9 °F 30.15 in WSW 0.1 mph 1 mph 57% 0.00 in 0 W/m2
21:09 37.6 °F 23.6 °F 30.15 in WSW 0.4 mph 1 mph 56.5% 0.00 in 0 W/m2
21:14 37.6 °F 23.4 °F 30.15 in WSW 0.4 mph 2 mph 56.2% 0.00 in 0 W/m2
21:19 37.6 °F 23.3 °F 30.15 in WSW 0.4 mph 2 mph 56% 0.00 in 0 W/m2
21:24 37.7 °F 23.6 °F 30.15 in Calm   2 mph 56.4% 0.00 in 0 W/m2
21:29 37.6 °F 23.7 °F 30.15 in Calm   2 mph 57% 0.00 in 0 W/m2
21:34 37.3 °F 23.7 °F 30.15 in Calm   2 mph 57.7% 0.00 in 0 W/m2
21:39 36.9 °F 23.5 °F 30.16 in Calm     57.8% 0.00 in 0 W/m2
21:44 36.5 °F 23.4 °F 30.16 in Calm     58.6% 0.00 in 0 W/m2
21:49 36.1 °F 23.2 °F 30.16 in Calm     58.9% 0.00 in 0 W/m2
21:54 35.9 °F 23.3 °F 30.16 in Calm     60% 0.00 in 0 W/m2
21:59 35.8 °F 23 °F 30.16 in WSW 0.2 mph 1 mph 59.3% 0.00 in 0 W/m2
22:04 36.1 °F 23.2 °F 30.16 in WSW 0.2 mph 1 mph 59% 0.00 in 0 W/m2
22:09 36.7 °F 23.3 °F 30.16 in WSW 0.4 mph 2 mph 58% 0.00 in 0 W/m2
22:14 37.3 °F 23.7 °F 30.15 in WSW 0.2 mph 2 mph 57.6% 0.00 in 0 W/m2
22:19 37.6 °F 23.8 °F 30.16 in WSW 0.2 mph 2 mph 57% 0.00 in 0 W/m2
22:24 37.8 °F 23.9 °F 30.16 in WSW 0.1 mph 2 mph 57% 0.00 in 0 W/m2
22:29 37.7 °F 23.9 °F 30.16 in WSW 0.1 mph 2 mph 57% 0.00 in 0 W/m2
22:34 37.5 °F 23.9 °F 30.16 in WSW 0.1 mph 2 mph 57.6% 0.00 in 0 W/m2
22:39 37.2 °F 23.8 °F 30.16 in WSW 0.6 mph 2 mph 58% 0.00 in 0 W/m2
22:44 36.9 °F 23.9 °F 30.16 in WSW 0.8 mph 2 mph 58.9% 0.00 in 0 W/m2
22:49 36.7 °F 23.8 °F 30.15 in WSW 1.1 mph 2 mph 59.2% 0.00 in 0 W/m2
22:54 36.6 °F 24 °F 30.16 in WSW 1.2 mph 3 mph 60% 0.00 in 0 W/m2
22:58 36.6 °F 24 °F 30.16 in WSW 1.1 mph 3 mph 60% 0.00 in 0 W/m2
Hartford County Weather
Compliments of Weather Underground - 4 mb